HELX

Luxor International Airport

Luxor, Egypt
METAR HELX 190400Z 00000KT CAVOK 25/15 Q1010 NOSIG
Observed Flight Rules
Sep-19 @ 04:00 UTC (an hour ago) Visual Flight Rules
Visibility Clouds
10,000+ meters
  • Clear skies
Temperatures Readings
Current 25°C / 77°F
Dewpoint 15°C / 59°F
Humidity 54%
Altimeter 29.82" Hg
Pressure 1010 hPa
Elevation 88
METAR HELX 190400Z 00000KT CAVOK 25/15 Q1010 NOSIG
Observed Flight Rules
Sep-19 @ 04:00 UTC
(an hour ago)
VFR
Clouds
  • Clear skies
Temperature Dewpoint
25°C / 77°F 15°C / 59°F
Humidity Altimeter Pressure
54% 29.82" Hg 1010 hPa